Seaspan Cavaler — CFN6639 — position and weather

sailwx.info

Track history (hours):
 
Tides and Currents Weather Stations Pressure Air Temp Water Temp Dewpoint Dewpoint Depression Visibility Wind Speed Wind Dir Waves Ship Positions

Seaspan Cavaler

Last reported at 2017-Oct-17 15:00 UTC. Time now 2017-Oct-17 15:16 UTC.
Position N 49°19' W 123°06'.

Length 24 m; draft 5.2 m.

Type: Towing. MMSI: 316003659.

Date/timePositionNaut miles runAvg speedWind from/ knotsBaromVisibWave heightAir tempDewpointWater temp
2017-Oct-17 15:00N 49°19' W 123°06'  
2017-Oct-13 22:50N 49°19' W 123°06'0 0.0
2017-Oct-13 22:30N 49°19' W 123°06'0 0.0
2017-Oct-13 22:01N 49°19' W 123°06'0 0.0
2017-Oct-13 21:30N 49°19' W 123°06'0 0.0
2017-Oct-13 21:01N 49°19' W 123°06'  
2017-Oct-09 03:48N 49°19' W 123°06'0 0.0
2017-Oct-09 03:30N 49°19' W 123°06'0 0.0
2017-Oct-09 03:00N 49°19' W 123°06'0 0.0
2017-Oct-09 02:30N 49°19' W 123°06'0 0.0
2017-Oct-09 02:00N 49°19' W 123°06'0 0.0
2017-Oct-09 01:30N 49°19' W 123°06'0 0.0
2017-Oct-09 01:00N 49°19' W 123°06'0 0.0
2017-Oct-09 00:30N 49°19' W 123°06'0 0.0
2017-Oct-09 00:00N 49°19' W 123°06'0 0.0
2017-Oct-08 23:30N 49°19' W 123°06'0 0.0
2017-Oct-08 23:00N 49°19' W 123°06'0 0.0
2017-Oct-08 22:30N 49°19' W 123°06'0 0.0
2017-Oct-08 22:00N 49°19' W 123°06'0 0.0
2017-Oct-08 21:30N 49°19' W 123°06'0 0.0
2017-Oct-08 21:00N 49°19' W 123°06'0 0.0
2017-Oct-08 20:30N 49°19' W 123°06'0 0.0
2017-Oct-08 20:00N 49°19' W 123°06'0 0.0
2017-Oct-08 19:30N 49°19' W 123°06'0 0.0
2017-Oct-08 19:00N 49°19' W 123°06'0 0.0
2017-Oct-08 18:30N 49°19' W 123°06'0 0.0
2017-Oct-08 18:00N 49°19' W 123°06'0 0.0
2017-Oct-08 17:30N 49°19' W 123°06'0 0.0
2017-Oct-08 17:00N 49°19' W 123°06'0 0.0
2017-Oct-08 16:30N 49°19' W 123°06'0 0.0
2017-Oct-08 16:00N 49°19' W 123°06'0 0.0
2017-Oct-08 15:30N 49°19' W 123°06'0 0.0
2017-Oct-08 15:00N 49°19' W 123°06'0 0.0
2017-Oct-08 14:30N 49°19' W 123°06'0 0.0
2017-Oct-08 14:00N 49°19' W 123°06'0 0.0
2017-Oct-08 13:30N 49°19' W 123°06'0 0.0
2017-Oct-08 13:00N 49°19' W 123°06'0 0.0
2017-Oct-08 12:30N 49°19' W 123°06'0 0.0
2017-Oct-08 12:00N 49°19' W 123°06'0 0.0
2017-Oct-08 11:30N 49°19' W 123°06'0 0.0
2017-Oct-08 11:00N 49°19' W 123°06'0 0.0
2017-Oct-08 10:30N 49°19' W 123°06'0 0.0
2017-Oct-08 10:00N 49°19' W 123°06'0 0.0
2017-Oct-08 09:30N 49°19' W 123°06'3 6.3
2017-Oct-08 09:00N 49°19' W 123°11'5 9.4
2017-Oct-08 08:30N 49°17' W 123°18'5 9.8
2017-Oct-08 08:00N 49°12' W 123°19'5 9.5
2017-Oct-08 07:30N 49°07' W 123°20'510.4
2017-Oct-08 07:00N 49°07' W 123°12'612.0
2017-Oct-08 06:30N 49°09' W 123°03'1 1.6
2017-Oct-08 06:00N 49°09' W 123°02'0 0.2
2017-Oct-08 05:30N 49°09' W 123°01'2 3.6
2017-Oct-08 05:00N 49°09' W 122°59'1 1.8
2017-Oct-08 04:30N 49°09' W 122°57'3 5.8
2017-Oct-08 04:00N 49°12' W 122°54'1 2.0
2017-Oct-08 03:30N 49°11' W 122°55'2 4.5
2017-Oct-08 03:00N 49°09' W 122°58'3 5.9
2017-Oct-08 02:30N 49°09' W 123°02'4 7.9
2017-Oct-08 02:00N 49°06' W 123°07'4 7.7
2017-Oct-08 01:30N 49°08' W 123°13'4 7.1
2017-Oct-08 01:00N 49°06' W 123°18'4 7.1
2017-Oct-08 00:30N 49°05' W 123°23'3 7.0
2017-Oct-08 00:00N 49°03' W 123°28'4 7.3
2017-Oct-07 23:30N 49°02' W 123°33'4 7.2
2017-Oct-07 23:00N 48°59' W 123°37'4 6.8
2017-Oct-07 22:29N 48°56' W 123°37'3 6.2
2017-Oct-07 22:00N 48°53' W 123°37'1 1.7
2017-Oct-07 21:31N 48°53' W 123°38'0 0.4
2017-Oct-07 21:00N 48°53' W 123°38'0 0.1
2017-Oct-07 20:30N 48°53' W 123°38'1 1.1
2017-Oct-07 20:00N 48°52' W 123°38'2 4.6
2017-Oct-07 19:30N 48°55' W 123°36'3 6.4
2017-Oct-07 19:00N 48°58' W 123°37'4 7.2
2017-Oct-07 18:30N 49°01' W 123°35'3 6.4
2017-Oct-07 18:00N 49°03' W 123°31'3 6.4
2017-Oct-07 17:30N 49°04' W 123°26'4 6.6
2017-Oct-07 16:58N 49°05' W 123°21'3 6.9
2017-Oct-07 16:30N 49°07' W 123°17'3 6.1
2017-Oct-07 16:00N 49°08' W 123°12'3 6.0
2017-Oct-07 15:30N 49°06' W 123°08'  
Track history (hours):
 
Tides and Currents Weather Stations Pressure Air Temp Water Temp Dewpoint Dewpoint Depression Visibility Wind Speed Wind Dir Waves Ship Positions

Seaspan Cavaler

Last reported at 2017-Oct-17 15:00 UTC. Time now 2017-Oct-17 15:16 UTC.
Position N 49°19' W 123°06'.

Length 24 m; draft 5.2 m.

Type: Towing. MMSI: 316003659.

Date/timePositionNaut miles runAvg speedWind from/ knotsBaromVisibWave heightAir tempDewpointWater temp
2017-Oct-17 15:00N 49°19' W 123°06'  
2017-Oct-13 22:50N 49°19' W 123°06'0 0.0
2017-Oct-13 22:30N 49°19' W 123°06'0 0.0
2017-Oct-13 22:01N 49°19' W 123°06'0 0.0
2017-Oct-13 21:30N 49°19' W 123°06'0 0.0
2017-Oct-13 21:01N 49°19' W 123°06'  
2017-Oct-09 03:48N 49°19' W 123°06'0 0.0
2017-Oct-09 03:30N 49°19' W 123°06'0 0.0
2017-Oct-09 03:00N 49°19' W 123°06'0 0.0
2017-Oct-09 02:30N 49°19' W 123°06'0 0.0
2017-Oct-09 02:00N 49°19' W 123°06'0 0.0
2017-Oct-09 01:30N 49°19' W 123°06'0 0.0
2017-Oct-09 01:00N 49°19' W 123°06'0 0.0
2017-Oct-09 00:30N 49°19' W 123°06'0 0.0
2017-Oct-09 00:00N 49°19' W 123°06'0 0.0
2017-Oct-08 23:30N 49°19' W 123°06'0 0.0
2017-Oct-08 23:00N 49°19' W 123°06'0 0.0
2017-Oct-08 22:30N 49°19' W 123°06'0 0.0
2017-Oct-08 22:00N 49°19' W 123°06'0 0.0
2017-Oct-08 21:30N 49°19' W 123°06'0 0.0
2017-Oct-08 21:00N 49°19' W 123°06'0 0.0
2017-Oct-08 20:30N 49°19' W 123°06'0 0.0
2017-Oct-08 20:00N 49°19' W 123°06'0 0.0
2017-Oct-08 19:30N 49°19' W 123°06'0 0.0
2017-Oct-08 19:00N 49°19' W 123°06'0 0.0
2017-Oct-08 18:30N 49°19' W 123°06'0 0.0
2017-Oct-08 18:00N 49°19' W 123°06'0 0.0
2017-Oct-08 17:30N 49°19' W 123°06'0 0.0
2017-Oct-08 17:00N 49°19' W 123°06'0 0.0
2017-Oct-08 16:30N 49°19' W 123°06'0 0.0
2017-Oct-08 16:00N 49°19' W 123°06'0 0.0
2017-Oct-08 15:30N 49°19' W 123°06'0 0.0
2017-Oct-08 15:00N 49°19' W 123°06'0 0.0
2017-Oct-08 14:30N 49°19' W 123°06'0 0.0
2017-Oct-08 14:00N 49°19' W 123°06'0 0.0
2017-Oct-08 13:30N 49°19' W 123°06'0 0.0
2017-Oct-08 13:00N 49°19' W 123°06'0 0.0
2017-Oct-08 12:30N 49°19' W 123°06'0 0.0
2017-Oct-08 12:00N 49°19' W 123°06'0 0.0
2017-Oct-08 11:30N 49°19' W 123°06'0 0.0
2017-Oct-08 11:00N 49°19' W 123°06'0 0.0
2017-Oct-08 10:30N 49°19' W 123°06'0 0.0
2017-Oct-08 10:00N 49°19' W 123°06'0 0.0
2017-Oct-08 09:30N 49°19' W 123°06'3 6.3
2017-Oct-08 09:00N 49°19' W 123°11'5 9.4
2017-Oct-08 08:30N 49°17' W 123°18'5 9.8
2017-Oct-08 08:00N 49°12' W 123°19'5 9.5
2017-Oct-08 07:30N 49°07' W 123°20'510.4
2017-Oct-08 07:00N 49°07' W 123°12'612.0
2017-Oct-08 06:30N 49°09' W 123°03'1 1.6
2017-Oct-08 06:00N 49°09' W 123°02'0 0.2
2017-Oct-08 05:30N 49°09' W 123°01'2 3.6
2017-Oct-08 05:00N 49°09' W 122°59'1 1.8
2017-Oct-08 04:30N 49°09' W 122°57'3 5.8
2017-Oct-08 04:00N 49°12' W 122°54'1 2.0
2017-Oct-08 03:30N 49°11' W 122°55'2 4.5
2017-Oct-08 03:00N 49°09' W 122°58'3 5.9
2017-Oct-08 02:30N 49°09' W 123°02'4 7.9
2017-Oct-08 02:00N 49°06' W 123°07'4 7.7
2017-Oct-08 01:30N 49°08' W 123°13'4 7.1
2017-Oct-08 01:00N 49°06' W 123°18'4 7.1
2017-Oct-08 00:30N 49°05' W 123°23'3 7.0
2017-Oct-08 00:00N 49°03' W 123°28'4 7.3
2017-Oct-07 23:30N 49°02' W 123°33'4 7.2
2017-Oct-07 23:00N 48°59' W 123°37'4 6.8
2017-Oct-07 22:29N 48°56' W 123°37'3 6.2
2017-Oct-07 22:00N 48°53' W 123°37'1 1.7
2017-Oct-07 21:31N 48°53' W 123°38'0 0.4
2017-Oct-07 21:00N 48°53' W 123°38'0 0.1
2017-Oct-07 20:30N 48°53' W 123°38'1 1.1
2017-Oct-07 20:00N 48°52' W 123°38'2 4.6
2017-Oct-07 19:30N 48°55' W 123°36'3 6.4
2017-Oct-07 19:00N 48°58' W 123°37'4 7.2
2017-Oct-07 18:30N 49°01' W 123°35'3 6.4
2017-Oct-07 18:00N 49°03' W 123°31'3 6.4
2017-Oct-07 17:30N 49°04' W 123°26'4 6.6
2017-Oct-07 16:58N 49°05' W 123°21'3 6.9
2017-Oct-07 16:30N 49°07' W 123°17'3 6.1
2017-Oct-07 16:00N 49°08' W 123°12'3 6.0
2017-Oct-07 15:30N 49°06' W 123°08'  

Dump ship's entire track history